sensor_id;sensor_type;location;lat;lon;timestamp;pressure;altitude;pressure_sealevel;temperature;humidity
77207;BME280;66190;50.708;7.906;2023-03-07T00:00:34;94803.59;;;-0.15;91.81
77207;BME280;66190;50.708;7.906;2023-03-07T00:02:59;94801.59;;;-0.13;91.65
77207;BME280;66190;50.708;7.906;2023-03-07T00:05:25;94788.38;;;-0.13;91.97
77207;BME280;66190;50.708;7.906;2023-03-07T00:07:50;94789.22;;;-0.13;92.06
77207;BME280;66190;50.708;7.906;2023-03-07T00:10:16;94778.28;;;-0.10;92.12
77207;BME280;66190;50.708;7.906;2023-03-07T00:12:41;94783.09;;;-0.13;92.07
77207;BME280;66190;50.708;7.906;2023-03-07T00:15:07;94774.81;;;-0.10;92.03
77207;BME280;66190;50.708;7.906;2023-03-07T00:17:35;94773.81;;;-0.09;92.12
77207;BME280;66190;50.708;7.906;2023-03-07T00:20:01;94770.16;;;-0.08;91.94
77207;BME280;66190;50.708;7.906;2023-03-07T00:22:26;94772.63;;;-0.07;92.03
77207;BME280;66190;50.708;7.906;2023-03-07T00:24:52;94764.69;;;-0.07;92.28
77207;BME280;66190;50.708;7.906;2023-03-07T00:27:17;94774.94;;;-0.04;92.38
77207;BME280;66190;50.708;7.906;2023-03-07T00:29:43;94768.81;;;-0.04;92.11
77207;BME280;66190;50.708;7.906;2023-03-07T00:32:08;94762.69;;;-0.05;92.63
77207;BME280;66190;50.708;7.906;2023-03-07T00:34:33;94759.22;;;-0.05;92.37
77207;BME280;66190;50.708;7.906;2023-03-07T00:36:59;94752.94;;;-0.04;92.41
77207;BME280;66190;50.708;7.906;2023-03-07T00:39:24;94759.06;;;-0.04;92.85
77207;BME280;66190;50.708;7.906;2023-03-07T00:41:49;94752.13;;;-0.05;92.62
77207;BME280;66190;50.708;7.906;2023-03-07T00:44:17;94749.28;;;-0.03;92.82
77207;BME280;66190;50.708;7.906;2023-03-07T00:46:43;94746.84;;;-0.05;92.96
77207;BME280;66190;50.708;7.906;2023-03-07T00:49:08;94747.47;;;-0.03;93.05
77207;BME280;66190;50.708;7.906;2023-03-07T00:51:34;94743.66;;;0.00;92.98
77207;BME280;66190;50.708;7.906;2023-03-07T00:53:59;94744.28;;;0.02;92.89
77207;BME280;66190;50.708;7.906;2023-03-07T00:56:24;94740.84;;;0.02;93.03
77207;BME280;66190;50.708;7.906;2023-03-07T00:58:51;94736.34;;;0.02;93.04
77207;BME280;66190;50.708;7.906;2023-03-07T01:01:21;94743.50;;;0.02;93.00
77207;BME280;66190;50.708;7.906;2023-03-07T01:03:47;94730.09;;;0.03;93.24
77207;BME280;66190;50.708;7.906;2023-03-07T01:06:16;94727.44;;;0.03;93.23
77207;BME280;66190;50.708;7.906;2023-03-07T01:08:42;94732.53;;;0.05;93.16
77207;BME280;66190;50.708;7.906;2023-03-07T01:11:08;94724.63;;;0.05;93.18
77207;BME280;66190;50.708;7.906;2023-03-07T01:13:34;94716.69;;;0.05;93.34
77207;BME280;66190;50.708;7.906;2023-03-07T01:16:18;94711.41;;;0.05;94.00
77207;BME280;66190;50.708;7.906;2023-03-07T01:18:48;94707.56;;;0.07;94.33
77207;BME280;66190;50.708;7.906;2023-03-07T01:23:44;94704.91;;;0.07;94.09
77207;BME280;66190;50.708;7.906;2023-03-07T01:26:20;94697.63;;;0.09;94.07
77207;BME280;66190;50.708;7.906;2023-03-07T01:28:46;94708.84;;;0.11;93.91
77207;BME280;66190;50.708;7.906;2023-03-07T01:31:12;94700.72;;;0.13;94.07
77207;BME280;66190;50.708;7.906;2023-03-07T01:33:37;94697.75;;;0.16;93.76
77207;BME280;66190;50.708;7.906;2023-03-07T01:36:04;94690.78;;;0.15;93.72
77207;BME280;66190;50.708;7.906;2023-03-07T01:38:30;94696.34;;;0.20;93.82
77207;BME280;66190;50.708;7.906;2023-03-07T01:40:59;94689.06;;;0.22;93.81
77207;BME280;66190;50.708;7.906;2023-03-07T01:43:31;94686.41;;;0.22;93.92
77207;BME280;66190;50.708;7.906;2023-03-07T01:46:24;94684.41;;;0.24;93.91
77207;BME280;66190;50.708;7.906;2023-03-07T01:51:32;94684.03;;;0.27;93.70
77207;BME280;66190;50.708;7.906;2023-03-07T01:53:59;94691.13;;;0.26;93.69
77207;BME280;66190;50.708;7.906;2023-03-07T01:56:26;94680.41;;;0.28;93.63
77207;BME280;66190;50.708;7.906;2023-03-07T01:58:52;94678.56;;;0.28;93.88
77207;BME280;66190;50.708;7.906;2023-03-07T02:01:18;94673.28;;;0.28;93.70
77207;BME280;66190;50.708;7.906;2023-03-07T02:06:11;94670.63;;;0.28;93.79
77207;BME280;66190;50.708;7.906;2023-03-07T02:08:37;94672.28;;;0.29;93.83
77207;BME280;66190;50.708;7.906;2023-03-07T02:11:04;94664.53;;;0.28;93.91
77207;BME280;66190;50.708;7.906;2023-03-07T02:13:30;94665.34;;;0.28;93.91
77207;BME280;66190;50.708;7.906;2023-03-07T02:15:58;94660.69;;;0.30;94.03
77207;BME280;66190;50.708;7.906;2023-03-07T02:18:27;94659.72;;;0.31;93.99
77207;BME280;66190;50.708;7.906;2023-03-07T02:24:33;94647.09;;;0.33;93.88
77207;BME280;66190;50.708;7.906;2023-03-07T02:27:03;94643.47;;;0.34;94.14
77207;BME280;66190;50.708;7.906;2023-03-07T02:29:30;94654.03;;;0.34;93.97
77207;BME280;66190;50.708;7.906;2023-03-07T02:31:55;94653.03;;;0.35;93.99
77207;BME280;66190;50.708;7.906;2023-03-07T02:34:24;94639.16;;;0.33;94.33
77207;BME280;66190;50.708;7.906;2023-03-07T02:36:55;94633.06;;;0.33;94.12
77207;BME280;66190;50.708;7.906;2023-03-07T02:39:23;94637.16;;;0.35;94.33
77207;BME280;66190;50.708;7.906;2023-03-07T02:41:51;94632.06;;;0.34;94.26
77207;BME280;66190;50.708;7.906;2023-03-07T02:44:19;94640.81;;;0.34;94.20
77207;BME280;66190;50.708;7.906;2023-03-07T02:46:44;94641.66;;;0.35;94.27
77207;BME280;66190;50.708;7.906;2023-03-07T02:49:10;94631.88;;;0.35;94.38
77207;BME280;66190;50.708;7.906;2023-03-07T02:51:35;94623.94;;;0.35;94.58
77207;BME280;66190;50.708;7.906;2023-03-07T02:54:01;94630.06;;;0.36;94.48
77207;BME280;66190;50.708;7.906;2023-03-07T02:56:26;94628.25;;;0.36;94.20
77207;BME280;66190;50.708;7.906;2023-03-07T02:58:51;94628.25;;;0.36;94.53
77207;BME280;66190;50.708;7.906;2023-03-07T03:01:17;94627.41;;;0.36;94.61
77207;BME280;66190;50.708;7.906;2023-03-07T03:03:42;94629.22;;;0.35;94.60
77207;BME280;66190;50.708;7.906;2023-03-07T03:06:08;94623.94;;;0.35;94.71
77207;BME280;66190;50.708;7.906;2023-03-07T03:08:34;94617.66;;;0.36;94.84
77207;BME280;66190;50.708;7.906;2023-03-07T03:10:59;94616.00;;;0.35;94.74
77207;BME280;66190;50.708;7.906;2023-03-07T03:13:25;94621.09;;;0.37;94.69
77207;BME280;66190;50.708;7.906;2023-03-07T03:15:56;94625.41;;;0.38;94.62
77207;BME280;66190;50.708;7.906;2023-03-07T03:18:23;94616.63;;;0.37;94.84
77207;BME280;66190;50.708;7.906;2023-03-07T03:20:51;94616.44;;;0.39;94.90
77207;BME280;66190;50.708;7.906;2023-03-07T03:23:16;94615.66;;;0.38;94.80
77207;BME280;66190;50.708;7.906;2023-03-07T03:25:41;94612.19;;;0.38;94.97
77207;BME280;66190;50.708;7.906;2023-03-07T03:28:07;94607.72;;;0.38;94.61
77207;BME280;66190;50.708;7.906;2023-03-07T03:30:32;94610.38;;;0.38;94.65
77207;BME280;66190;50.708;7.906;2023-03-07T03:33:01;94599.78;;;0.38;94.62
77207;BME280;66190;50.708;7.906;2023-03-07T03:35:27;94603.22;;;0.39;94.67
77207;BME280;66190;50.708;7.906;2023-03-07T03:37:52;94599.59;;;0.40;94.67
77207;BME280;66190;50.708;7.906;2023-03-07T03:40:18;94597.13;;;0.38;94.65
77207;BME280;66190;50.708;7.906;2023-03-07T03:42:45;94601.41;;;0.39;94.85
77207;BME280;66190;50.708;7.906;2023-03-07T03:45:11;94597.75;;;0.40;94.67
77207;BME280;66190;50.708;7.906;2023-03-07T03:47:37;94609.97;;;0.41;94.48
77207;BME280;66190;50.708;7.906;2023-03-07T03:50:03;94607.16;;;0.43;94.58
77207;BME280;66190;50.708;7.906;2023-03-07T03:52:28;94603.47;;;0.44;94.44
77207;BME280;66190;50.708;7.906;2023-03-07T03:54:54;94599.03;;;0.44;94.41
77207;BME280;66190;50.708;7.906;2023-03-07T03:57:20;94603.28;;;0.45;94.54
77207;BME280;66190;50.708;7.906;2023-03-07T03:59:46;94585.41;;;0.47;94.25
77207;BME280;66190;50.708;7.906;2023-03-07T04:02:12;94592.56;;;0.47;94.06
77207;BME280;66190;50.708;7.906;2023-03-07T04:04:37;94585.06;;;0.50;94.22
77207;BME280;66190;50.708;7.906;2023-03-07T04:07:05;94591.16;;;0.51;94.21
77207;BME280;66190;50.708;7.906;2023-03-07T04:09:31;94586.50;;;0.53;93.84
77207;BME280;66190;50.708;7.906;2023-03-07T04:11:56;94589.97;;;0.53;93.93
77207;BME280;66190;50.708;7.906;2023-03-07T04:14:22;94592.63;;;0.53;94.19
77207;BME280;66190;50.708;7.906;2023-03-07T04:16:48;94581.03;;;0.54;93.98
77207;BME280;66190;50.708;7.906;2023-03-07T04:19:13;94581.03;;;0.54;94.18
77207;BME280;66190;50.708;7.906;2023-03-07T04:21:39;94580.81;;;0.56;93.97
77207;BME280;66190;50.708;7.906;2023-03-07T04:24:08;94580.81;;;0.56;94.11
77207;BME280;66190;50.708;7.906;2023-03-07T04:26:34;94573.06;;;0.54;94.02
77207;BME280;66190;50.708;7.906;2023-03-07T04:29:00;94564.16;;;0.55;94.21
77207;BME280;66190;50.708;7.906;2023-03-07T04:31:27;94573.06;;;0.54;94.04
77207;BME280;66190;50.708;7.906;2023-03-07T04:33:53;94567.00;;;0.54;94.16
77207;BME280;66190;50.708;7.906;2023-03-07T04:36:20;94566.34;;;0.52;94.11
77207;BME280;66190;50.708;7.906;2023-03-07T04:38:46;94551.47;;;0.51;94.36
77207;BME280;66190;50.708;7.906;2023-03-07T04:41:13;94558.41;;;0.52;94.16
77207;BME280;66190;50.708;7.906;2023-03-07T04:43:39;94557.59;;;0.51;94.34
77207;BME280;66190;50.708;7.906;2023-03-07T04:46:05;94547.66;;;0.53;94.21
77207;BME280;66190;50.708;7.906;2023-03-07T04:48:31;94547.84;;;0.52;94.33
77207;BME280;66190;50.708;7.906;2023-03-07T04:50:56;94554.75;;;0.53;94.18
77207;BME280;66190;50.708;7.906;2023-03-07T04:53:22;94541.72;;;0.51;94.47
77207;BME280;66190;50.708;7.906;2023-03-07T04:55:47;94544.38;;;0.51;94.43
77207;BME280;66190;50.708;7.906;2023-03-07T04:58:13;94538.88;;;0.53;94.37
77207;BME280;66190;50.708;7.906;2023-03-07T05:00:43;94534.63;;;0.52;94.49
77207;BME280;66190;50.708;7.906;2023-03-07T05:03:10;94521.38;;;0.52;94.51
77207;BME280;66190;50.708;7.906;2023-03-07T05:05:36;94533.78;;;0.51;94.34
77207;BME280;66190;50.708;7.906;2023-03-07T05:08:01;94526.69;;;0.52;94.39
77207;BME280;66190;50.708;7.906;2023-03-07T05:10:29;94533.59;;;0.53;94.44
77207;BME280;66190;50.708;7.906;2023-03-07T05:12:54;94530.31;;;0.51;94.54
77207;BME280;66190;50.708;7.906;2023-03-07T05:15:19;94537.25;;;0.52;94.30
77207;BME280;66190;50.708;7.906;2023-03-07T05:17:45;94518.75;;;0.52;94.18
77207;BME280;66190;50.708;7.906;2023-03-07T05:20:10;94514.25;;;0.52;94.09
77207;BME280;66190;50.708;7.906;2023-03-07T05:22:37;94518.34;;;0.55;94.23
77207;BME280;66190;50.708;7.906;2023-03-07T05:25:03;94512.03;;;0.56;94.12
77207;BME280;66190;50.708;7.906;2023-03-07T05:27:30;94522.47;;;0.57;93.80
77207;BME280;66190;50.708;7.906;2023-03-07T05:29:55;94513.50;;;0.58;93.81
77207;BME280;66190;50.708;7.906;2023-03-07T05:32:20;94515.31;;;0.58;93.93
77207;BME280;66190;50.708;7.906;2023-03-07T05:34:46;94507.19;;;0.59;94.00
77207;BME280;66190;50.708;7.906;2023-03-07T05:37:12;94504.94;;;0.56;93.99
77207;BME280;66190;50.708;7.906;2023-03-07T05:39:37;94508.41;;;0.57;94.10
77207;BME280;66190;50.708;7.906;2023-03-07T05:42:03;94508.41;;;0.57;93.92
77207;BME280;66190;50.708;7.906;2023-03-07T05:44:30;94503.13;;;0.57;93.98
77207;BME280;66190;50.708;7.906;2023-03-07T05:46:55;94512.69;;;0.58;93.94
77207;BME280;66190;50.708;7.906;2023-03-07T05:49:21;94506.59;;;0.57;93.93
77207;BME280;66190;50.708;7.906;2023-03-07T05:51:46;94505.56;;;0.58;93.89
77207;BME280;66190;50.708;7.906;2023-03-07T05:54:11;94502.09;;;0.58;94.13
77207;BME280;66190;50.708;7.906;2023-03-07T05:56:37;94506.41;;;0.59;93.83
77207;BME280;66190;50.708;7.906;2023-03-07T05:59:03;94498.66;;;0.57;93.96
77207;BME280;66190;50.708;7.906;2023-03-07T06:01:31;94500.47;;;0.57;93.92
77207;BME280;66190;50.708;7.906;2023-03-07T06:03:57;94494.34;;;0.56;94.18
77207;BME280;66190;50.708;7.906;2023-03-07T06:06:22;94489.88;;;0.57;93.85
77207;BME280;66190;50.708;7.906;2023-03-07T06:08:48;94496.00;;;0.57;94.14
77207;BME280;66190;50.708;7.906;2023-03-07T06:11:13;94492.16;;;0.60;93.90
77207;BME280;66190;50.708;7.906;2023-03-07T06:13:38;94491.16;;;0.61;93.90
77207;BME280;66190;50.708;7.906;2023-03-07T06:16:04;94491.16;;;0.61;93.67
77207;BME280;66190;50.708;7.906;2023-03-07T06:18:29;94487.28;;;0.63;93.48
77207;BME280;66190;50.708;7.906;2023-03-07T06:21:03;94490.13;;;0.62;93.79
77207;BME280;66190;50.708;7.906;2023-03-07T06:23:31;94500.53;;;0.63;93.57
77207;BME280;66190;50.708;7.906;2023-03-07T06:25:58;94502.97;;;0.65;93.50
77207;BME280;66190;50.708;7.906;2023-03-07T06:28:24;94492.38;;;0.65;93.57
77207;BME280;66190;50.708;7.906;2023-03-07T06:30:49;94497.50;;;0.66;93.20
77207;BME280;66190;50.708;7.906;2023-03-07T06:33:15;94495.47;;;0.68;93.00
77207;BME280;66190;50.708;7.906;2023-03-07T06:35:43;94495.47;;;0.68;92.97
77207;BME280;66190;50.708;7.906;2023-03-07T06:38:10;94496.09;;;0.70;92.69
77207;BME280;66190;50.708;7.906;2023-03-07T06:40:36;94494.50;;;0.69;92.71
77207;BME280;66190;50.708;7.906;2023-03-07T06:43:02;94495.72;;;0.73;92.56
77207;BME280;66190;50.708;7.906;2023-03-07T06:45:27;94505.50;;;0.73;92.54
77207;BME280;66190;50.708;7.906;2023-03-07T06:47:53;94498.00;;;0.76;92.26
77207;BME280;66190;50.708;7.906;2023-03-07T06:50:18;94491.06;;;0.75;92.11
77207;BME280;66190;50.708;7.906;2023-03-07T06:52:44;94487.41;;;0.76;91.87
77207;BME280;66190;50.708;7.906;2023-03-07T06:55:10;94495.97;;;0.78;91.72
77207;BME280;66190;50.708;7.906;2023-03-07T06:57:36;94492.13;;;0.81;91.56
77207;BME280;66190;50.708;7.906;2023-03-07T07:00:03;94490.31;;;0.81;91.35
77207;BME280;66190;50.708;7.906;2023-03-07T07:02:30;94496.03;;;0.85;91.13
77207;BME280;66190;50.708;7.906;2023-03-07T07:04:55;94498.09;;;0.89;91.07
77207;BME280;66190;50.708;7.906;2023-03-07T07:07:24;94488.97;;;0.92;90.56
77207;BME280;66190;50.708;7.906;2023-03-07T07:09:50;94484.47;;;0.92;90.59
77207;BME280;66190;50.708;7.906;2023-03-07T07:12:16;94488.78;;;0.93;90.38
77207;BME280;66190;50.708;7.906;2023-03-07T07:14:41;94496.31;;;0.96;90.65
77207;BME280;66190;50.708;7.906;2023-03-07T07:17:07;94489.00;;;0.98;89.87
77207;BME280;66190;50.708;7.906;2023-03-07T07:19:34;94493.09;;;1.01;90.01
77207;BME280;66190;50.708;7.906;2023-03-07T07:22:00;94492.53;;;1.05;89.66
77207;BME280;66190;50.708;7.906;2023-03-07T07:24:25;94487.25;;;1.05;89.44
77207;BME280;66190;50.708;7.906;2023-03-07T07:26:50;94496.41;;;1.09;89.45
77207;BME280;66190;50.708;7.906;2023-03-07T07:29:16;94500.09;;;1.08;89.36
77207;BME280;66190;50.708;7.906;2023-03-07T07:31:41;94493.75;;;1.09;89.10
77207;BME280;66190;50.708;7.906;2023-03-07T07:34:07;94501.34;;;1.12;88.60
77207;BME280;66190;50.708;7.906;2023-03-07T07:36:33;94494.38;;;1.11;89.18
77207;BME280;66190;50.708;7.906;2023-03-07T07:39:03;94497.22;;;1.10;89.12
77207;BME280;66190;50.708;7.906;2023-03-07T07:41:30;94493.75;;;1.09;89.35
77207;BME280;66190;50.708;7.906;2023-03-07T07:43:56;94490.94;;;1.11;89.45
77207;BME280;66190;50.708;7.906;2023-03-07T07:46:21;94501.16;;;1.14;89.29
77207;BME280;66190;50.708;7.906;2023-03-07T07:48:50;94496.84;;;1.13;89.37
77207;BME280;66190;50.708;7.906;2023-03-07T07:51:16;94502.56;;;1.16;88.93
77207;BME280;66190;50.708;7.906;2023-03-07T07:53:41;94491.97;;;1.16;88.83
77207;BME280;66190;50.708;7.906;2023-03-07T07:56:07;94495.44;;;1.17;88.90
77207;BME280;66190;50.708;7.906;2023-03-07T07:58:32;94500.56;;;1.18;88.95
77207;BME280;66190;50.708;7.906;2023-03-07T08:00:58;94497.72;;;1.20;88.46
77207;BME280;66190;50.708;7.906;2023-03-07T08:03:23;94496.28;;;1.17;88.42
77207;BME280;66190;50.708;7.906;2023-03-07T08:05:49;94495.88;;;1.21;88.42
77207;BME280;66190;50.708;7.906;2023-03-07T08:08:18;94493.88;;;1.23;88.46
77207;BME280;66190;50.708;7.906;2023-03-07T08:10:47;94491.03;;;1.24;88.45
77207;BME280;66190;50.708;7.906;2023-03-07T08:13:14;94489.63;;;1.28;88.01
77207;BME280;66190;50.708;7.906;2023-03-07T08:15:40;94491.06;;;1.31;87.66
77207;BME280;66190;50.708;7.906;2023-03-07T08:18:06;94480.88;;;1.34;87.75
77207;BME280;66190;50.708;7.906;2023-03-07T08:20:32;94479.91;;;1.35;87.77
77207;BME280;66190;50.708;7.906;2023-03-07T08:22:58;94485.63;;;1.39;87.35
77207;BME280;66190;50.708;7.906;2023-03-07T08:25:23;94482.19;;;1.45;87.18
77207;BME280;66190;50.708;7.906;2023-03-07T08:27:50;94477.91;;;1.44;86.85
77207;BME280;66190;50.708;7.906;2023-03-07T08:30:22;94487.47;;;1.45;86.77
77207;BME280;66190;50.708;7.906;2023-03-07T08:32:51;94493.84;;;1.50;86.77
77207;BME280;66190;50.708;7.906;2023-03-07T08:35:17;94484.25;;;1.49;86.64
77207;BME280;66190;50.708;7.906;2023-03-07T08:37:44;94487.50;;;1.51;86.84
77207;BME280;66190;50.708;7.906;2023-03-07T08:40:10;94499.56;;;1.54;86.35
77207;BME280;66190;50.708;7.906;2023-03-07T08:42:35;94491.63;;;1.60;86.15
77207;BME280;66190;50.708;7.906;2023-03-07T08:45:00;94488.38;;;1.58;86.16
77207;BME280;66190;50.708;7.906;2023-03-07T08:47:26;94495.31;;;1.59;86.14
77207;BME280;66190;50.708;7.906;2023-03-07T08:49:51;94496.94;;;1.60;86.12
77207;BME280;66190;50.708;7.906;2023-03-07T08:52:17;94486.97;;;1.62;86.32
77207;BME280;66190;50.708;7.906;2023-03-07T08:54:42;94487.38;;;1.59;86.21
77207;BME280;66190;50.708;7.906;2023-03-07T08:57:07;94499.38;;;1.62;86.46
77207;BME280;66190;50.708;7.906;2023-03-07T08:59:33;94486.97;;;1.62;85.83
77207;BME280;66190;50.708;7.906;2023-03-07T09:01:59;94508.16;;;1.62;85.49
77207;BME280;66190;50.708;7.906;2023-03-07T09:04:24;94484.91;;;1.58;86.10
77207;BME280;66190;50.708;7.906;2023-03-07T09:06:50;94488.75;;;1.55;86.32
77207;BME280;66190;50.708;7.906;2023-03-07T09:09:16;94488.13;;;1.53;86.69
77207;BME280;66190;50.708;7.906;2023-03-07T09:11:44;94492.44;;;1.54;86.86
77207;BME280;66190;50.708;7.906;2023-03-07T09:14:10;94491.22;;;1.57;87.68
77207;BME280;66190;50.708;7.906;2023-03-07T09:16:35;94497.75;;;1.54;87.13
77207;BME280;66190;50.708;7.906;2023-03-07T09:19:01;94488.34;;;1.52;87.70
77207;BME280;66190;50.708;7.906;2023-03-07T09:21:26;94493.19;;;1.48;88.24
77207;BME280;66190;50.708;7.906;2023-03-07T09:23:51;94498.06;;;1.45;88.38
77207;BME280;66190;50.708;7.906;2023-03-07T09:26:17;94488.31;;;1.45;88.49
77207;BME280;66190;50.708;7.906;2023-03-07T09:28:42;94488.91;;;1.41;89.23
77207;BME280;66190;50.708;7.906;2023-03-07T09:31:10;94487.69;;;1.43;88.89
77207;BME280;66190;50.708;7.906;2023-03-07T09:33:35;94481.38;;;1.44;89.06
77207;BME280;66190;50.708;7.906;2023-03-07T09:36:05;94487.13;;;1.48;88.83
77207;BME280;66190;50.708;7.906;2023-03-07T09:38:31;94479.75;;;1.50;88.40
77207;BME280;66190;50.708;7.906;2023-03-07T09:41:06;94474.25;;;1.51;88.50
77207;BME280;66190;50.708;7.906;2023-03-07T09:43:46;94488.78;;;1.62;88.28
77207;BME280;66190;50.708;7.906;2023-03-07T09:46:41;94475.66;;;1.88;87.74
77207;BME280;66190;50.708;7.906;2023-03-07T09:49:35;94477.72;;;1.86;86.30
77207;BME280;66190;50.708;7.906;2023-03-07T09:52:13;94478.50;;;1.80;85.88
77207;BME280;66190;50.708;7.906;2023-03-07T09:54:44;94471.94;;;1.76;86.15
77207;BME280;66190;50.708;7.906;2023-03-07T09:57:23;94468.50;;;1.75;85.95
77207;BME280;66190;50.708;7.906;2023-03-07T10:00:23;94475.00;;;1.73;85.56
77207;BME280;66190;50.708;7.906;2023-03-07T10:03:07;94472.97;;;1.75;85.89
77207;BME280;66190;50.708;7.906;2023-03-07T10:05:43;94464.81;;;1.76;86.18
77207;BME280;66190;50.708;7.906;2023-03-07T10:08:15;94471.72;;;1.77;85.78
77207;BME280;66190;50.708;7.906;2023-03-07T10:10:48;94473.59;;;1.77;85.98
77207;BME280;66190;50.708;7.906;2023-03-07T10:16:15;94475.22;;;1.78;85.90
77207;BME280;66190;50.708;7.906;2023-03-07T10:19:02;94465.25;;;1.80;85.82
77207;BME280;66190;50.708;7.906;2023-03-07T10:22:02;94455.25;;;1.82;85.87
77207;BME280;66190;50.708;7.906;2023-03-07T10:27:10;94449.97;;;1.88;85.83
77207;BME280;66190;50.708;7.906;2023-03-07T10:29:47;94449.78;;;1.90;86.02
77207;BME280;66190;50.708;7.906;2023-03-07T10:32:20;94454.50;;;1.94;85.84
77207;BME280;66190;50.708;7.906;2023-03-07T10:40:14;94450.19;;;1.93;85.70
77207;BME280;66190;50.708;7.906;2023-03-07T10:42:41;94452.25;;;1.98;86.05
77207;BME280;66190;50.708;7.906;2023-03-07T10:45:11;94454.91;;;1.98;85.78
77207;BME280;66190;50.708;7.906;2023-03-07T10:47:37;94451.63;;;1.96;85.97
77207;BME280;66190;50.708;7.906;2023-03-07T10:53:17;94444.31;;;1.98;86.50
77207;BME280;66190;50.708;7.906;2023-03-07T10:55:45;94438.59;;;2.01;86.36
77207;BME280;66190;50.708;7.906;2023-03-07T11:00:45;94435.75;;;2.09;85.99
77207;BME280;66190;50.708;7.906;2023-03-07T11:03:24;94432.91;;;2.10;86.19
77207;BME280;66190;50.708;7.906;2023-03-07T11:05:50;94431.06;;;2.04;86.60
77207;BME280;66190;50.708;7.906;2023-03-07T11:08:31;94434.34;;;2.06;86.19
77207;BME280;66190;50.708;7.906;2023-03-07T11:11:01;94437.00;;;2.06;86.49
77207;BME280;66190;50.708;7.906;2023-03-07T11:13:30;94433.94;;;2.09;86.31
77207;BME280;66190;50.708;7.906;2023-03-07T11:16:20;94438.19;;;2.04;86.40
77207;BME280;66190;50.708;7.906;2023-03-07T11:18:47;94437.78;;;2.07;86.61
77207;BME280;66190;50.708;7.906;2023-03-07T11:24:21;94432.47;;;2.07;87.09
77207;BME280;66190;50.708;7.906;2023-03-07T11:26:44;94431.69;;;2.06;87.43
77207;BME280;66190;50.708;7.906;2023-03-07T11:29:13;94432.09;;;2.10;87.38
77207;BME280;66190;50.708;7.906;2023-03-07T11:34:48;94432.94;;;2.17;86.54
77207;BME280;66190;50.708;7.906;2023-03-07T11:37:38;94430.28;;;2.17;86.09
77207;BME280;66190;50.708;7.906;2023-03-07T11:43:04;94430.28;;;2.23;86.39
77207;BME280;66190;50.708;7.906;2023-03-07T11:48:06;94413.38;;;2.38;86.45
77207;BME280;66190;50.708;7.906;2023-03-07T11:50:37;94412.56;;;2.44;86.21
77207;BME280;66190;50.708;7.906;2023-03-07T11:54:07;94409.09;;;2.50;85.31
77207;BME280;66190;50.708;7.906;2023-03-07T11:56:21;94409.09;;;2.56;85.02
77207;BME280;66190;50.708;7.906;2023-03-07T12:01:51;94395.81;;;2.63;85.36
77207;BME280;66190;50.708;7.906;2023-03-07T12:10:11;94388.69;;;2.76;83.95
77207;BME280;66190;50.708;7.906;2023-03-07T12:15:33;94402.56;;;2.85;84.06
77207;BME280;66190;50.708;7.906;2023-03-07T12:23:45;94402.56;;;2.91;82.79
77207;BME280;66190;50.708;7.906;2023-03-07T12:26:16;94394.59;;;2.91;83.15
77207;BME280;66190;50.708;7.906;2023-03-07T12:28:53;94396.00;;;2.94;82.88
77207;BME280;66190;50.708;7.906;2023-03-07T12:31:33;94397.44;;;2.96;83.07
77207;BME280;66190;50.708;7.906;2023-03-07T12:36:54;94403.78;;;2.95;82.50
77207;BME280;66190;50.708;7.906;2023-03-07T12:39:24;94386.81;;;2.96;83.19
77207;BME280;66190;50.708;7.906;2023-03-07T12:44:42;94392.94;;;3.03;82.52
77207;BME280;66190;50.708;7.906;2023-03-07T12:50:19;94387.38;;;3.11;80.67
77207;BME280;66190;50.708;7.906;2023-03-07T12:52:51;94385.56;;;3.12;80.92
77207;BME280;66190;50.708;7.906;2023-03-07T12:55:38;94379.81;;;3.15;80.73
77207;BME280;66190;50.708;7.906;2023-03-07T13:00:58;94384.94;;;3.23;78.69
77207;BME280;66190;50.708;7.906;2023-03-07T13:03:38;94381.63;;;3.27;77.26
77207;BME280;66190;50.708;7.906;2023-03-07T13:06:08;94387.56;;;3.29;77.37
77207;BME280;66190;50.708;7.906;2023-03-07T13:08:36;94385.91;;;3.28;77.49
77207;BME280;66190;50.708;7.906;2023-03-07T13:11:02;94377.16;;;3.28;77.57
77207;BME280;66190;50.708;7.906;2023-03-07T13:13:52;94389.59;;;3.27;77.79
77207;BME280;66190;50.708;7.906;2023-03-07T13:16:38;94393.09;;;3.28;78.47
77207;BME280;66190;50.708;7.906;2023-03-07T13:24:52;94390.63;;;3.20;79.11
77207;BME280;66190;50.708;7.906;2023-03-07T13:27:43;94372.03;;;3.20;78.80
77207;BME280;66190;50.708;7.906;2023-03-07T13:53:19;94361.81;;;3.23;78.49
77207;BME280;66190;50.708;7.906;2023-03-07T13:58:58;94363.00;;;3.34;78.38
77207;BME280;66190;50.708;7.906;2023-03-07T14:06:50;94355.81;;;3.47;76.38
77207;BME280;66190;50.708;7.906;2023-03-07T14:09:19;94353.75;;;3.49;76.59
77207;BME280;66190;50.708;7.906;2023-03-07T14:22:51;94358.47;;;3.47;75.48
77207;BME280;66190;50.708;7.906;2023-03-07T14:25:27;94362.75;;;3.48;75.12
77207;BME280;66190;50.708;7.906;2023-03-07T14:28:00;94363.97;;;3.46;75.56
77207;BME280;66190;50.708;7.906;2023-03-07T14:30:29;94359.50;;;3.46;75.24
77207;BME280;66190;50.708;7.906;2023-03-07T14:32:56;94350.50;;;3.41;75.38
77207;BME280;66190;50.708;7.906;2023-03-07T14:35:40;94356.44;;;3.43;74.79
77207;BME280;66190;50.708;7.906;2023-03-07T14:38:16;94364.03;;;3.39;75.09
77207;BME280;66190;50.708;7.906;2023-03-07T14:41:05;94362.78;;;3.35;76.24
77207;BME280;66190;50.708;7.906;2023-03-07T14:46:43;94359.78;;;3.25;76.24
77207;BME280;66190;50.708;7.906;2023-03-07T14:49:35;94359.78;;;3.19;77.20
77207;BME280;66190;50.708;7.906;2023-03-07T14:52:08;94359.78;;;3.25;75.67
77207;BME280;66190;50.708;7.906;2023-03-07T14:54:36;94364.06;;;3.26;76.03
77207;BME280;66190;50.708;7.906;2023-03-07T14:57:02;94354.25;;;3.27;75.72
77207;BME280;66190;50.708;7.906;2023-03-07T14:59:28;94357.13;;;3.25;76.10
77207;BME280;66190;50.708;7.906;2023-03-07T15:01:56;94362.00;;;3.28;75.36
77207;BME280;66190;50.708;7.906;2023-03-07T15:04:24;94355.06;;;3.27;75.57
77207;BME280;66190;50.708;7.906;2023-03-07T15:07:00;94356.09;;;3.26;75.65
77207;BME280;66190;50.708;7.906;2023-03-07T15:09:27;94361.41;;;3.26;75.46
77207;BME280;66190;50.708;7.906;2023-03-07T15:14:40;94365.91;;;3.26;75.50
77207;BME280;66190;50.708;7.906;2023-03-07T15:17:21;94361.03;;;3.23;76.22
77207;BME280;66190;50.708;7.906;2023-03-07T15:22:23;94359.16;;;3.23;76.45